createdAt,value
2019-03-27T00:00:10.498Z,8.23
2019-03-27T00:05:18.031Z,7.50
2019-03-27T00:10:24.133Z,8.37
2019-03-27T00:15:29.928Z,7.07
2019-03-27T00:20:35.634Z,7.33
2019-03-27T00:25:42.354Z,7.60
2019-03-27T00:30:48.264Z,7.63
2019-03-27T00:35:53.960Z,7.20
2019-03-27T00:40:59.659Z,7.47
2019-03-27T00:46:06.202Z,7.90
2019-03-27T00:51:12.014Z,7.53
2019-03-27T00:56:17.969Z,8.47
2019-03-27T01:01:23.677Z,8.13
2019-03-27T01:06:29.456Z,7.93
2019-03-27T01:11:35.249Z,8.77
2019-03-27T01:16:41.133Z,8.47
2019-03-27T01:21:46.837Z,7.90
2019-03-27T01:26:52.534Z,8.13
2019-03-27T01:31:58.635Z,7.77
2019-03-27T01:37:04.820Z,7.93
2019-03-27T01:42:11.500Z,8.03
2019-03-27T01:47:18.322Z,8.27
2019-03-27T01:52:24.257Z,8.87
2019-03-27T01:57:29.955Z,8.30
2019-03-27T02:02:36.108Z,8.20
2019-03-27T02:07:42.118Z,8.17
2019-03-27T02:12:48.257Z,7.73
2019-03-27T02:17:53.980Z,7.33
2019-03-27T02:22:59.678Z,7.77
2019-03-27T02:28:05.374Z,8.20
2019-03-27T02:33:11.076Z,7.33
2019-03-27T02:38:17.175Z,8.00
2019-03-27T02:43:23.174Z,7.50
2019-03-27T02:48:29.283Z,8.00
2019-03-27T02:53:35.380Z,7.33
2019-03-27T02:58:41.397Z,8.47
2019-03-27T03:03:47.282Z,8.50
2019-03-27T03:08:53.144Z,8.67
2019-03-27T03:13:58.859Z,8.30
2019-03-27T03:19:04.942Z,9.20
2019-03-27T03:24:10.723Z,8.50
2019-03-27T03:29:16.555Z,8.07
2019-03-27T03:34:23.172Z,8.17
2019-03-27T03:39:28.893Z,8.20
2019-03-27T03:44:36.167Z,7.73
2019-03-27T03:49:42.949Z,8.43
2019-03-27T03:54:50.700Z,7.83
2019-03-27T03:59:57.827Z,7.87
2019-03-27T04:05:05.901Z,7.63
2019-03-27T04:10:11.813Z,8.17
2019-03-27T04:15:18.069Z,7.57
2019-03-27T04:20:23.783Z,7.73
2019-03-27T04:25:29.602Z,6.90
2019-03-27T04:30:35.416Z,6.83
2019-03-27T04:35:41.122Z,7.43
2019-03-27T04:40:46.846Z,6.43
2019-03-27T04:45:52.967Z,6.87
2019-03-27T04:50:58.693Z,7.63
2019-03-27T04:56:04.419Z,7.23
2019-03-27T05:01:10.173Z,7.37
2019-03-27T05:06:15.964Z,8.03
2019-03-27T05:11:22.571Z,7.70
2019-03-27T05:16:29.259Z,6.87
2019-03-27T05:21:34.991Z,7.40
2019-03-27T05:26:41.185Z,7.47
2019-03-27T05:31:46.900Z,7.00
2019-03-27T05:36:52.849Z,7.27
2019-03-27T05:41:58.571Z,7.20
2019-03-27T05:47:04.298Z,7.60
2019-03-27T05:52:10.134Z,7.87
2019-03-27T05:57:15.829Z,7.17
2019-03-27T06:02:21.560Z,7.13
2019-03-27T06:07:27.301Z,7.37
2019-03-27T06:12:33.056Z,7.50
2019-03-27T06:17:38.776Z,7.90
2019-03-27T06:22:44.813Z,7.47
2019-03-27T06:27:50.613Z,7.17
2019-03-27T06:32:56.329Z,7.53
2019-03-27T06:38:02.541Z,7.43
2019-03-27T06:43:08.815Z,6.97
2019-03-27T06:48:25.721Z,7.97
2019-03-27T06:53:23.046Z,7.50
2019-03-27T06:58:28.761Z,7.70
2019-03-27T07:03:34.890Z,7.10
2019-03-27T07:08:40.644Z,7.33
2019-03-27T07:13:46.365Z,8.20
2019-03-27T07:18:52.279Z,8.07
2019-03-27T07:23:58.332Z,7.83
2019-03-27T07:29:04.062Z,7.23
2019-03-27T07:34:10.168Z,8.20
2019-03-27T07:39:16.376Z,7.40
2019-03-27T07:44:22.089Z,7.23
2019-03-27T07:49:27.901Z,7.83
2019-03-27T07:54:34.380Z,6.67
2019-03-27T07:59:40.421Z,7.63
2019-03-27T08:04:46.306Z,6.10
2019-03-27T08:09:52.072Z,6.73
2019-03-27T08:14:57.794Z,7.00
2019-03-27T08:20:04.145Z,6.80
2019-03-27T08:25:12.554Z,6.17
2019-03-27T08:30:18.470Z,6.33
2019-03-27T08:35:24.189Z,6.43
2019-03-27T08:40:30.050Z,6.93
2019-03-27T08:45:37.446Z,7.20
2019-03-27T08:50:43.268Z,6.77
2019-03-27T08:55:48.987Z,6.30
2019-03-27T09:00:56.293Z,6.77
2019-03-27T09:06:02.680Z,6.47
2019-03-27T09:11:08.453Z,7.03
2019-03-27T09:16:14.397Z,6.83
2019-03-27T09:21:20.169Z,7.00
2019-03-27T09:26:26.378Z,7.10
2019-03-27T09:31:43.933Z,6.17
2019-03-27T09:36:39.957Z,7.77
2019-03-27T09:41:45.671Z,6.30
2019-03-27T09:46:51.526Z,6.90
2019-03-27T09:51:57.376Z,7.90
2019-03-27T09:57:03.565Z,7.23
2019-03-27T10:02:09.305Z,7.87
2019-03-27T10:07:15.017Z,6.67
2019-03-27T10:12:20.914Z,7.27
2019-03-27T10:17:26.600Z,7.53
2019-03-27T10:22:32.433Z,7.70
2019-03-27T10:27:38.558Z,7.23
2019-03-27T10:32:44.282Z,8.00
2019-03-27T10:37:50.301Z,7.93
2019-03-27T10:42:56.724Z,7.33
2019-03-27T10:48:02.737Z,7.27
2019-03-27T10:53:08.805Z,6.73
2019-03-27T10:58:14.524Z,7.70
2019-03-27T11:03:20.265Z,6.90
2019-03-27T11:08:26.025Z,7.20
2019-03-27T11:13:34.450Z,6.90
2019-03-27T11:18:40.518Z,6.67
2019-03-27T11:23:46.636Z,6.97
2019-03-27T11:28:52.831Z,7.27
2019-03-27T11:33:58.614Z,7.17
2019-03-27T11:39:08.315Z,7.33
2019-03-27T11:44:14.029Z,6.90
2019-03-27T11:49:20.058Z,7.37
2019-03-27T11:54:26.148Z,6.70
2019-03-27T11:59:32.344Z,7.07
2019-03-27T12:04:38.060Z,7.00
2019-03-27T12:09:44.710Z,7.37
2019-03-27T12:14:50.424Z,7.13
2019-03-27T12:19:56.254Z,7.07
2019-03-27T12:25:02.080Z,7.07
2019-03-27T12:30:08.354Z,6.80
2019-03-27T12:35:14.192Z,7.07
2019-03-27T12:40:20.325Z,6.97
2019-03-27T12:45:26.137Z,7.20
2019-03-27T12:50:32.186Z,6.13
2019-03-27T12:55:38.008Z,6.97
2019-03-27T13:00:44.693Z,6.47
2019-03-27T13:05:50.476Z,6.90
2019-03-27T13:10:56.304Z,7.55
2019-03-27T13:16:02.425Z,6.80
2019-03-27T13:21:09.197Z,6.40
2019-03-27T13:26:15.007Z,6.23
2019-03-27T13:31:20.806Z,5.83
2019-03-27T13:36:27.472Z,6.17
2019-03-27T13:41:33.177Z,5.37
2019-03-27T13:46:39.039Z,5.83
2019-03-27T13:51:44.751Z,5.23
2019-03-27T13:56:50.919Z,4.90
2019-03-27T14:01:56.720Z,4.92
2019-03-27T14:07:04.014Z,4.87
2019-03-27T14:12:10.093Z,5.40
2019-03-27T14:17:15.997Z,5.40
2019-03-27T14:22:21.811Z,4.90
2019-03-27T14:27:27.602Z,5.20
2019-03-27T14:32:33.496Z,5.73
2019-03-27T14:37:39.308Z,5.47
2019-03-27T14:42:46.178Z,5.47
2019-03-27T14:47:51.889Z,4.90
2019-03-27T14:52:59.097Z,5.15
2019-03-27T14:58:04.902Z,5.10
2019-03-27T15:03:10.694Z,4.40
2019-03-27T15:08:16.870Z,4.15
2019-03-27T15:13:23.439Z,4.75
2019-03-27T15:18:30.679Z,4.67
2019-03-27T15:23:36.763Z,4.62
2019-03-27T15:28:42.562Z,4.40
2019-03-27T15:33:48.496Z,5.05
2019-03-27T15:38:54.707Z,4.40
2019-03-27T15:44:00.909Z,4.95
2019-03-27T15:49:07.462Z,5.95
2019-03-27T15:54:13.354Z,5.30
2019-03-27T15:59:20.636Z,5.70
2019-03-27T16:04:27.610Z,5.87
2019-03-27T16:09:34.041Z,5.58
2019-03-27T16:14:39.866Z,5.28
2019-03-27T16:19:45.846Z,5.90
2019-03-27T16:24:52.150Z,5.40
2019-03-27T16:29:57.952Z,6.10
2019-03-27T16:35:04.067Z,6.17
2019-03-27T16:40:10.555Z,5.40
2019-03-27T16:45:16.676Z,5.93
2019-03-27T16:50:24.076Z,5.20
2019-03-27T16:55:29.871Z,5.30
2019-03-27T17:00:35.692Z,5.62
2019-03-27T17:05:53.276Z,5.40
2019-03-27T17:10:48.860Z,5.70
2019-03-27T17:15:55.051Z,5.83
2019-03-27T17:21:00.766Z,5.40
2019-03-27T17:26:06.481Z,5.37
2019-03-27T17:31:12.388Z,5.80
2019-03-27T17:36:18.180Z,5.57
2019-03-27T17:41:23.978Z,5.47
2019-03-27T17:46:29.802Z,5.90
2019-03-27T17:51:35.992Z,5.60
2019-03-27T17:56:42.127Z,5.27
2019-03-27T18:01:47.840Z,5.00
2019-03-27T18:06:53.641Z,5.17
2019-03-27T18:11:59.588Z,6.07
2019-03-27T18:17:05.530Z,5.53
2019-03-27T18:22:11.343Z,5.77
2019-03-27T18:27:17.466Z,5.80
2019-03-27T18:32:24.099Z,6.40
2019-03-27T18:37:29.850Z,6.50
2019-03-27T18:42:36.591Z,6.13
2019-03-27T18:47:42.673Z,6.00
2019-03-27T18:52:48.402Z,5.67
2019-03-27T18:58:00.166Z,5.73
2019-03-27T19:03:02.462Z,5.70
2019-03-27T19:08:08.735Z,6.13
2019-03-27T19:13:15.008Z,6.47
2019-03-27T19:18:20.908Z,6.00
2019-03-27T19:23:26.948Z,6.10
2019-03-27T19:28:32.672Z,6.87
2019-03-27T19:33:39.700Z,6.10
2019-03-27T19:38:45.783Z,6.47
2019-03-27T19:43:52.543Z,6.80
2019-03-27T19:49:00.284Z,6.80
2019-03-27T19:54:07.965Z,7.20
2019-03-27T19:59:14.786Z,7.30
2019-03-27T20:04:21.438Z,6.93
2019-03-27T20:09:27.259Z,6.90
2019-03-27T20:14:33.020Z,7.27
2019-03-27T20:19:39.081Z,7.13
2019-03-27T20:24:44.811Z,7.30
2019-03-27T20:29:51.762Z,7.60
2019-03-27T20:34:57.792Z,7.97
2019-03-27T20:40:03.936Z,7.70
2019-03-27T20:45:10.339Z,7.70
2019-03-27T20:50:16.794Z,7.20
2019-03-27T20:55:30.320Z,8.07
2019-03-27T21:00:30.701Z,7.37
2019-03-27T21:05:37.818Z,7.97
2019-03-27T21:10:44.940Z,7.80
2019-03-27T21:15:51.624Z,7.80
2019-03-27T21:20:57.368Z,7.67
2019-03-27T21:26:05.147Z,9.07
2019-03-27T21:31:11.116Z,8.77
2019-03-27T21:36:18.044Z,8.87
2019-03-27T21:41:24.098Z,8.93
2019-03-27T21:46:30.665Z,9.07
2019-03-27T21:51:37.272Z,8.70
2019-03-27T21:56:43.033Z,9.27
2019-03-27T22:01:48.845Z,8.67
2019-03-27T22:06:54.684Z,9.03
2019-03-27T22:12:00.921Z,8.43
2019-03-27T22:17:06.980Z,7.77
2019-03-27T22:22:13.038Z,8.07
2019-03-27T22:27:19.856Z,8.20
2019-03-27T22:32:26.406Z,8.10
2019-03-27T22:37:32.135Z,8.33
2019-03-27T22:42:37.849Z,8.43
2019-03-27T22:47:43.660Z,8.50
2019-03-27T22:52:49.402Z,9.10
2019-03-27T22:57:55.217Z,8.60
2019-03-27T23:03:01.076Z,9.27
2019-03-27T23:08:06.794Z,7.87
2019-03-27T23:13:12.653Z,7.50
2019-03-27T23:18:18.569Z,8.60
2019-03-27T23:23:24.291Z,8.43
2019-03-27T23:28:30.022Z,7.80
2019-03-27T23:33:36.677Z,8.43
2019-03-27T23:38:42.499Z,8.77
2019-03-27T23:43:48.216Z,8.60
2019-03-27T23:48:54.443Z,9.03
2019-03-27T23:54:00.201Z,8.60
2019-03-27T23:59:05.879Z,8.70
